地図

経路データ

SID SEASON NUMBER BASIN SUBBASIN NAME ISO_TIME NATURE LAT LON WMO_WIND WMO_PRES WMO_AGENCY TRACK_TYPE DIST2LAND LANDFALL IFLAG USA_AGENCY USA_ATCF_ID USA_LAT USA_LON USA_RECORD USA_STATUS USA_WIND USA_PRES USA_SSHS USA_R34_NE USA_R34_SE USA_R34_SW USA_R34_NW USA_R50_NE USA_R50_SE USA_R50_SW USA_R50_NW USA_R64_NE USA_R64_SE USA_R64_SW USA_R64_NW USA_POCI USA_ROCI USA_RMW USA_EYE TOKYO_LAT TOKYO_LON TOKYO_GRADE TOKYO_WIND TOKYO_PRES TOKYO_R50_DIR TOKYO_R50_LONG TOKYO_R50_SHORT TOKYO_R30_DIR TOKYO_R30_LONG TOKYO_R30_SHORT TOKYO_LAND CMA_LAT CMA_LON CMA_CAT CMA_WIND CMA_PRES HKO_LAT HKO_LON HKO_CAT HKO_WIND HKO_PRES NEWDELHI_LAT NEWDELHI_LON NEWDELHI_GRADE NEWDELHI_WIND NEWDELHI_PRES NEWDELHI_CI NEWDELHI_DP NEWDELHI_POCI REUNION_LAT REUNION_LON REUNION_TYPE REUNION_WIND REUNION_PRES REUNION_TNUM REUNION_CI REUNION_RMW REUNION_R34_NE REUNION_R34_SE REUNION_R34_SW REUNION_R34_NW REUNION_R50_NE REUNION_R50_SE REUNION_R50_SW REUNION_R50_NW REUNION_R64_NE REUNION_R64_SE REUNION_R64_SW REUNION_R64_NW BOM_LAT BOM_LON BOM_TYPE BOM_WIND BOM_PRES BOM_TNUM BOM_CI BOM_RMW BOM_R34_NE BOM_R34_SE BOM_R34_SW BOM_R34_NW BOM_R50_NE BOM_R50_SE BOM_R50_SW BOM_R50_NW BOM_R64_NE BOM_R64_SE BOM_R64_SW BOM_R64_NW BOM_ROCI BOM_POCI BOM_EYE BOM_POS_METHOD BOM_PRES_METHOD NADI_LAT NADI_LON NADI_CAT NADI_WIND NADI_PRES WELLINGTON_LAT WELLINGTON_LON WELLINGTON_WIND WELLINGTON_PRES DS824_LAT DS824_LON DS824_STAGE DS824_WIND DS824_PRES TD9636_LAT TD9636_LON TD9636_STAGE TD9636_WIND TD9636_PRES TD9635_LAT TD9635_LON TD9635_WIND TD9635_PRES TD9635_ROCI NEUMANN_LAT NEUMANN_LON NEUMANN_CLASS NEUMANN_WIND NEUMANN_PRES MLC_LAT MLC_LON MLC_CLASS MLC_WIND MLC_PRES USA_GUST BOM_GUST BOM_GUST_PER REUNION_GUST REUNION_GUST_PER USA_SEAHGT USA_SEARAD_NE USA_SEARAD_SE USA_SEARAD_SW USA_SEARAD_NW STORM_SPEED STORM_DIR
1967015S14124 1967 7 SI WA ELSIE 1967-01-14 23:00:00 NR -14.0000 124.000 main 145 145 __________O___ -1 -14.0000 124.000 7 1 0
1967015S14124 1967 7 SI WA ELSIE 1967-01-15 00:00:00 TS -13.9953 123.979 main 145 145 O________OP___ jtwc_sh SH151967 -14.0000 124.000 -1 -14.0000 124.000 TC -13.9906 123.957 7 3 287
1967015S14124 1967 7 SI WA ELSIE 1967-01-15 03:00:00 TS -13.9498 123.834 main 170 170 P________PP___ SH151967 -13.9400 123.837 -1 -13.9400 123.837 TC -13.9628 123.829 7 3 287
1967015S14124 1967 7 SI WA ELSIE 1967-01-15 06:00:00 TS -13.9146 123.701 main 179 179 O________OP___ jtwc_sh SH151967 -13.9000 123.700 -1 -13.9000 123.700 TC -13.9366 123.703 7 2 282
1967015S14124 1967 7 SI WA ELSIE 1967-01-15 09:00:00 TS -13.8994 123.593 main 189 189 P________PP___ SH151967 -13.8925 123.600 -1 -13.8925 123.600 TC -13.9133 123.580 7 2 275
1967015S14124 1967 7 SI WA ELSIE 1967-01-15 11:00:00 TS -13.8982 123.524 main 199 199 P________PO___ SH151967 -13.8974 123.536 -1 -13.8974 123.536 TC -13.9000 123.500 7 2 271
1967015S14124 1967 7 SI WA ELSIE 1967-01-15 12:00:00 TS -13.8981 123.487 main 199 199 O________OP___ jtwc_sh SH151967 -13.9000 123.500 -1 -13.9000 123.500 TC -13.8942 123.461 7 3 271
1967015S14124 1967 7 SI WA ELSIE 1967-01-15 15:00:00 TS -13.8937 123.348 main 217 217 P________PP___ SH151967 -13.9000 123.350 -1 -13.9000 123.350 TC -13.8812 123.344 7 3 271
1967015S14124 1967 7 SI WA ELSIE 1967-01-15 18:00:00 TS -13.8925 123.208 main 225 225 O________OP___ jtwc_sh SH151967 -13.9000 123.200 -1 -13.9000 123.200 TC -13.8774 123.224 7 2 271
1967015S14124 1967 7 SI WA ELSIE 1967-01-15 21:00:00 TS -13.8903 123.103 main 233 233 P________PP___ SH151967 -13.8925 123.107 -1 -13.8925 123.107 TC -13.8859 123.095 7 2 269
1967015S14124 1967 7 SI WA ELSIE 1967-01-15 23:00:00 TS -13.8962 123.028 main 242 242 P________PO___ SH151967 -13.8943 123.042 -1 -13.8943 123.042 TC -13.9000 123.000 1 3 238
1967015S14124 1967 7 SI WA ELSIE 1967-01-16 00:00:00 TS -13.9635 122.983 main 233 232 O________OP_O_ jtwc_sh SH151967 -13.9000 123.000 -1 -13.9000 123.000 TC -13.9063 122.945 1 -14.7000 123.000 TC 30 999 6 212
1967015S14124 1967 7 SI WA ELSIE 1967-01-16 01:00:00 TS -14.0770 122.916 999 bom main 232 232 P_____O__PP_P_ SH151967 -13.9110 122.942 -1 -14.7000 123.000 999 -13.9110 122.942 TC -13.9141 122.887 1 -14.7556 122.828 TC 30 998 7 226
1967015S14124 1967 7 SI WA ELSIE 1967-01-16 03:00:00 TS -14.2022 122.724 main 240 240 P_____P__PP_P_ SH151967 -13.9425 122.808 -1 -14.7847 122.659 -13.9425 122.808 TC -13.9346 122.766 1 -14.8628 122.488 TC 32 998 7 241
1967015S14124 1967 7 SI WA ELSIE 1967-01-16 06:00:00 TS -14.3501 122.399 main 241 241 O_____P__OP_O_ jtwc_sh SH151967 -14.0000 122.600 -1 -14.9110 122.150 -14.0000 122.600 TC -13.9796 122.581 1 -15.0000 122.000 TC 35 997 7 248
1967015S14124 1967 7 SI WA ELSIE 1967-01-16 09:00:00 TS -14.4531 122.094 main 239 239 P_____P__PP_P_ SH151967 -14.0425 122.435 -1 -15.0364 121.646 -14.0425 122.435 TC -14.0443 122.405 1 -15.0998 121.550 TC 37 996 6 252
1967015S14124 1967 7 SI WA ELSIE 1967-01-16 11:00:00 TS -14.5077 121.910 main 248 248 P_____P__PO_P_ SH151967 -14.0776 122.342 -1 -15.1196 121.315 -14.0776 122.342 TC -14.1000 122.300 1 -15.1635 121.253 TC 39 995 5 252
1967015S14124 1967 7 SI WA ELSIE 1967-01-16 12:00:00 TS -14.5365 121.825 main 253 243 O_____P__OP_O_ jtwc_sh SH151967 -14.1000 122.300 -1 -15.1611 121.152 -14.1000 122.300 TC -14.1216 122.275 1 -15.2000 121.100 TC 40 995 5 248
1967015S14124 1967 7 SI WA ELSIE 1967-01-16 15:00:00 TS -14.6379 121.579 main 254 244 P_____P__PP_P_ SH151967 -14.1775 122.200 -1 -15.2854 120.669 -14.1775 122.200 TC -14.1990 122.224 1 -15.3500 120.600 TC 42 993 5 245
1967015S14124 1967 7 SI WA ELSIE 1967-01-16 18:00:00 TS -14.7634 121.334 main 256 255 O_____P__OP_O_ jtwc_sh SH151967 -14.3000 122.100 -1 -15.4095 120.203 -14.3000 122.100 TC -14.3073 122.165 1 -15.5000 120.100 TC 45 992 5 241
1967015S14124 1967 7 SI WA ELSIE 1967-01-16 21:00:00 TS -14.9027 121.084 main 263 263 P_____P__PP_P_ SH151967 -14.4624 121.995 -1 -15.5337 119.757 -14.4624 121.995 TC -14.4626 122.044 1 -15.5924 119.627 TC 45 991 6 239
1967015S14124 1967 7 SI WA ELSIE 1967-01-16 23:00:00 TS -15.0193 120.894 main 270 270 P_____P__PO_P_ SH151967 -14.6109 121.881 -1 -15.6167 119.473 -14.6109 121.881 TC -14.6000 121.900 1 -15.6578 119.336 TC 45 990 8 238
1967015S14124 1967 7 SI WA ELSIE 1967-01-17 00:00:00 TS -15.1180 120.722 main 278 270 O_____P__OP_O_ jtwc_sh SH151967 -14.7000 121.800 -1 -15.6583 119.335 -14.7000 121.800 TC -14.6864 121.803 1 -15.7000 119.200 TC 45 990 12 239
1967015S14124 1967 7 SI WA ELSIE 1967-01-17 01:00:00 TS -15.2220 120.548 990 bom main 286 278 P_____O__PP_P_ SH151967 -14.8021 121.706 -1 -15.7000 119.200 990 -14.8021 121.706 TC -14.7814 121.693 1 -15.7604 119.072 TC 45 989 11 237
1967015S14124 1967 7 SI WA ELSIE 1967-01-17 03:00:00 TS -15.4141 120.246 main 294 286 P_____P__PP_P_ SH151967 -15.0349 121.468 -1 -15.7837 118.939 -15.0349 121.468 TC -14.9916 121.435 1 -15.8999 118.835 TC 47 989 11 238
1967015S14124 1967 7 SI WA ELSIE 1967-01-17 06:00:00 TS -15.6902 119.779 main 309 309 O_____P__OP_O_ jtwc_sh SH151967 -15.4000 121.000 -1 -15.9106 118.566 -15.4000 121.000 TC -15.3368 120.963 1 -16.1000 118.500 TC 50 988 10 240
1967015S14124 1967 7 SI WA ELSIE 1967-01-17 09:00:00 TS -15.9172 119.324 main 346 346 P_____P__PP_P_ SH151967 -15.7148 120.452 -1 -16.0400 118.206 -15.7148 120.452 TC -15.6848 120.408 1 -16.2149 118.157 TC 52 986 10 244
1967015S14124 1967 7 SI WA ELSIE 1967-01-17 11:00:00 TS -16.0566 118.993 main 366 366 P_____P__PO_P_ SH151967 -15.9082 120.028 -1 -16.1281 117.970 -15.9082 120.028 TC -15.9000 120.000 2 -16.2719 117.922 TC 54 985 11 247
1967015S14124 1967 7 SI WA ELSIE 1967-01-17 12:00:00 TS -16.1219 118.820 main 386 386 O_____P__OP_O_ jtwc_sh SH151967 -16.0000 119.800 -1 -16.1728 117.852 -16.0000 119.800 TC -15.9925 119.785 2 -16.3000 117.800 TC 55 985 11 250
1967015S14124 1967 7 SI WA ELSIE 1967-01-17 15:00:00 TS -16.3118 118.266 main 429 425 P_____P__PP_P_ SH151967 -16.2651 119.057 -1 -16.3097 117.495 -16.2651 119.057 TC -16.2492 119.084 2 -16.3925 117.407 TC 55 984 11 251
1967015S14124 1967 7 SI WA ELSIE 1967-01-17 18:00:00 TS -16.4881 117.696 main 429 429 O_____P__OP_O_ jtwc_sh SH151967 -16.5000 118.300 -1 -16.4515 117.127 -16.5000 118.300 TC -16.4769 118.347 2 -16.5000 117.000 TC 55 983 11 252
1967015S14124 1967 7 SI WA ELSIE 1967-01-17 19:00:00 TS -16.5493 117.510 983 bom main 436 424 P_____O__PP_P_ SH151967 -16.5775 118.061 -1 -16.5000 117.000 983 -16.5775 118.061 TC -16.5468 118.103 2 -16.5600 116.864 TC 55 982 11 251
1967015S14124 1967 7 SI WA ELSIE 1967-01-17 21:00:00 TS -16.6682 117.145 main 427 422 P_____P__PP_P_ SH151967 -16.7224 117.605 -1 -16.5993 116.732 981 -16.7224 117.605 TC -16.6784 117.633 2 -16.6875 116.593 TC 57 981 11 252
1967015S14124 1967 7 SI WA ELSIE 1967-01-17 23:00:00 TS -16.7736 116.800 main 425 425 P_____P__PO_P_ SH151967 -16.8473 117.189 -1 -16.6999 116.463 980 -16.8473 117.189 TC -16.8000 117.200 2 -16.7816 116.328 TC 59 980 10 253
1967015S14124 1967 7 SI WA ELSIE 1967-01-18 00:00:00 TS -16.8170 116.642 main 425 425 O_____P__OP_O_ jtwc_sh SH151967 -16.9000 117.000 -1 -16.7501 116.330 980 -16.9000 117.000 TC -16.8520 117.022 2 -16.8000 116.200 TC 60 980 9 257
1967015S14124 1967 7 SI WA ELSIE 1967-01-18 01:00:00 TS -16.8434 116.492 980 bom main 425 415 P_____O__PP_P_ SH151967 -16.9393 116.827 -1 -16.8000 116.200 980 -16.9393 116.827 TC -16.9002 116.855 2 -16.7554 116.075 TC 60 979 8 261
1967015S14124 1967 7 SI WA ELSIE 1967-01-18 03:00:00 TS -16.8780 116.216 main 417 417 P_____P__PP_P_ SH151967 -16.9997 116.520 -1 -16.8940 115.961 -16.9997 116.520 TC -16.9892 116.546 2 -16.6124 115.834 TC 62 979 8 261
1967015S14124 1967 7 SI WA ELSIE 1967-01-18 06:00:00 TS -16.9479 115.831 main 424 408 O_____P__OP_O_ jtwc_sh SH151967 -17.1000 116.100 -1 -17.0305 115.626 -17.1000 116.100 TC -17.1200 116.122 2 -16.5000 115.500 TC 65 979 8 251
1967015S14124 1967 7 SI WA ELSIE 1967-01-18 09:00:00 TS -17.1220 115.456 main 411 401 P_____P__PP_P_ SH151967 -17.2697 115.680 -1 -17.1656 115.304 -17.2697 115.680 TC -17.2726 115.701 2 -16.8474 115.208 TC 65 978 8 242
1967015S14124 1967 7 SI WA ELSIE 1967-01-18 11:00:00 TS -17.2693 115.193 main 401 401 P_____P__PO_P_ SH151967 -17.4165 115.373 -1 -17.2571 115.088 -17.4165 115.373 TC -17.4000 115.400 2 -17.1606 115.009 TC 65 978 9 240
1967015S14124 1967 7 SI WA ELSIE 1967-01-18 12:00:00 TS -17.3472 115.045 main 410 400 O_____P__OP_O_ jtwc_sh SH151967 -17.5000 115.200 -1 -17.3038 114.977 -17.5000 115.200 TC -17.4803 115.196 2 -17.3000 114.900 TC 65 978 10 244
1967015S14124 1967 7 SI WA ELSIE 1967-01-18 15:00:00 TS -17.5734 114.535 main 407 407 P_____P__PP_P_ SH151967 -17.7854 114.543 -1 -17.4492 114.626 -17.7854 114.543 TC -17.7543 114.544 2 -17.5375 114.522 TC 65 977 11 245
1967015S14124 1967 7 SI WA ELSIE 1967-01-18 16:00:00 TS -17.6521 114.358 977 bom main 404 404 P_____O__PP_P_ SH151967 -17.8895 114.316 -1 -17.5000 114.500 977 -17.8895 114.316 TC -17.8541 114.325 2 -17.5962 114.385 TC 65 977 11 245
1967015S14124 1967 7 SI WA ELSIE 1967-01-18 18:00:00 TS -17.8054 114.015 main 416 413 O_____P__OP_O_ jtwc_sh SH151967 -18.1000 113.900 -1 -17.5584 114.227 976 -18.1000 113.900 TC -18.0622 113.902 2 -17.7000 114.100 TC 65 977 10 243
1967015S14124 1967 7 SI WA ELSIE 1967-01-18 21:00:00 TS -18.0378 113.550 main 422 416 P_____P__PP_P_ SH151967 -18.3999 113.403 -1 -17.6730 113.795 975 -18.3999 113.403 TC -18.3852 113.361 2 -17.8050 113.657 TC 67 976 10 239
1967015S14124 1967 7 SI WA ELSIE 1967-01-18 23:00:00 TS -18.2153 113.288 main 420 411 P_____P__PO_P_ SH151967 -18.6000 113.175 -1 -17.8019 113.499 975 -18.6000 113.175 TC -18.6000 113.100 1 -17.9126 113.352 TC 69 975 9 232
1967015S14124 1967 7 SI WA ELSIE 1967-01-19 00:00:00 TS -18.3148 113.180 main 411 402 O_____P__OP_O_ jtwc_sh SH151967 -18.7000 113.100 -1 -17.8908 113.350 975 -18.7000 113.100 TC -18.6983 113.030 1 -18.0000 113.200 TC 70 975 9 224
1967015S14124 1967 7 SI WA ELSIE 1967-01-19 01:00:00 TS -18.4245 113.078 975 bom main 402 383 P_____O__PP_P_ SH151967 -18.7999 113.052 -1 -18.0000 113.200 975 -18.7999 113.052 TC -18.7965 112.984 1 -18.1242 113.029 TC 70 974 9 217
1967015S14124 1967 7 SI WA ELSIE 1967-01-19 03:00:00 TS -18.6700 112.903 main 375 341 P_____P__PP_P_ SH151967 -18.9999 113.032 -1 -18.2799 112.853 974 -18.9999 113.032 TC -18.9934 112.953 1 -18.4402 112.691 TC 70 974 9 206
1967015S14124 1967 7 SI WA ELSIE 1967-01-19 06:00:00 TS -19.0831 112.736 main 341 330 O_____P__OP_O_ jtwc_sh SH151967 -19.3000 113.100 -1 -18.8076 112.401 973 -19.3000 113.100 TC -19.2911 113.014 1 -19.0000 112.300 TC 70 973 9 199
1967015S14124 1967 7 SI WA ELSIE 1967-01-19 07:00:00 TS -19.2246 112.702 973 bom main 330 300 P_____O__PP_P_ SH151967 -19.4000 113.116 -1 -19.0000 112.300 973 -19.4000 113.116 TC -19.3913 113.050 1 -19.1722 112.222 TC 70 972 9 187
1967015S14124 1967 7 SI WA ELSIE 1967-01-19 09:00:00 TS -19.5118 112.673 main 300 270 P_____P__PP_P_ SH151967 -19.6000 113.157 -1 -19.3696 112.179 972 -19.6000 113.157 TC -19.5939 113.131 1 -19.5273 112.145 TC 72 972 9 182
1967015S14124 1967 7 SI WA ELSIE 1967-01-19 11:00:00 TS -19.8123 112.686 main 270 261 P_____P__PO_P_ SH151967 -19.8000 113.192 -1 -19.7773 112.168 971 -19.8000 113.192 TC -19.8000 113.200 2 -19.9025 112.161 TC 74 971 9 0
1967015S14124 1967 7 SI WA ELSIE 1967-01-19 12:00:00 TS -19.9665 112.698 971 bom main 251 208 O_____O__OP_O_ jtwc_sh SH151967 -19.9000 113.200 -1 -20.0000 112.200 971 -19.9000 113.200 TC -19.8988 113.189 2 -20.1000 112.200 TC 75 971 10 174
1967015S14124 1967 7 SI WA ELSIE 1967-01-19 15:00:00 TS -20.4509 112.761 main 199 191 P_____P__PP_P_ SH151967 -20.1925 113.158 -1 -20.7582 112.406 970 -20.1925 113.158 TC -20.1982 113.140 2 -20.7575 112.397 TC 75 970 10 172
1967015S14124 1967 7 SI WA ELSIE 1967-01-19 16:00:00 TS -20.6117 112.795 970 bom main 191 159 P_____O__PP_P_ SH151967 -20.2921 113.136 -1 -21.0000 112.500 970 -20.2921 113.136 TC -20.3006 113.122 2 -20.9795 112.493 TC 75 969 10 167
1967015S14124 1967 7 SI WA ELSIE 1967-01-19 18:00:00 TS -20.9191 112.872 main 159 123 O_____P__OP_O_ jtwc_sh SH151967 -20.5000 113.100 -1 -21.4088 112.673 968 -20.5000 113.100 TC -20.5118 113.092 2 -21.4000 112.700 TC 75 969 9 165
1967015S14124 1967 7 SI WA ELSIE 1967-01-19 21:00:00 TS -21.3467 113.011 main 123 98 P_____P__PP_P_ SH151967 -20.8200 113.070 -1 -21.9007 112.950 967 -20.8200 113.070 TC -20.8521 113.077 2 -21.9525 113.007 TC 77 967 9 162
1967015S14124 1967 7 SI WA ELSIE 1967-01-19 23:00:00 TS -21.6189 113.118 main 98 84 P_____P__PO_P_ SH151967 -21.0636 113.080 -1 -22.1672 113.132 966 -21.0636 113.080 TC -21.1000 113.100 2 -22.2641 113.209 TC 79 965 9 160
1967015S14124 1967 7 SI WA ELSIE 1967-01-20 00:00:00 TS -21.7544 113.174 main 79 75 O_____P__OP_O_ jtwc_sh SH151967 -21.2000 113.100 -1 -22.2870 113.218 965 -21.2000 113.100 TC -21.2394 113.125 2 -22.4000 113.300 TC 80 965 9 159
1967015S14124 1967 7 SI WA ELSIE 1967-01-20 01:00:00 TS -21.8933 113.228 965 bom main 75 56 P_____O__PP_P_ SH151967 -21.3548 113.128 -1 -22.4000 113.300 965 4 -21.3548 113.128 TC -21.3845 113.158 2 -22.5280 113.381 TC 80 965 9 160
1967015S14124 1967 7 SI WA ELSIE 1967-01-20 03:00:00 TS -22.1721 113.341 main 52 15 P_____P__PP_P_ SH151967 -21.6925 113.212 -1 -22.6294 113.445 965 -21.6925 113.212 TC -21.6875 113.243 2 -22.7449 113.523 TC 80 965 9 157
1967015S14124 1967 7 SI WA ELSIE 1967-01-20 06:00:00 TS -22.5620 113.526 main 10 0 O_____P__OP_O_ jtwc_sh SH151967 -22.2000 113.400 -1 -22.9155 113.639 965 -22.2000 113.400 TC -22.1566 113.415 2 -23.0000 113.700 TC 80 965 8 156
1967015S14124 1967 7 SI WA ELSIE 1967-01-20 07:00:00 TS -22.6801 113.590 965 bom main 10 10 P_____O__PP_P_ SH151967 -22.3474 113.469 -1 -23.0000 113.700 965 -22.3474 113.469 TC -22.3122 113.483 2 -23.0781 113.756 TC 78 965 8 151
1967015S14124 1967 7 SI WA ELSIE 1967-01-20 09:00:00 TS -22.9005 113.726 main 10 0 P_____P__PP_P_ SH151967 -22.6225 113.628 -1 -23.1636 113.825 -22.6225 113.628 TC -22.6153 113.634 2 -23.2150 113.858 TC 75 967 7 149
1967015S14124 1967 7 SI WA ELSIE 1967-01-20 11:00:00 TS -23.1014 113.869 main 0 0 P_____P__PO_P_ SH151967 -22.8776 113.806 -1 -23.3068 113.945 -22.8776 113.806 TC -22.9000 113.800 2 -23.3386 113.953 TC 71 968 7 146
1967015S14124 1967 7 SI WA ELSIE 1967-01-20 12:00:00 TS -23.1954 113.941 main 0 0 O_____P__OP_O_ jtwc_sh SH151967 -23.0000 113.900 -1 -23.3721 114.003 -23.0000 113.900 TC -23.0288 113.884 2 -23.4000 114.000 TC 70 969 7 143
1967015S14124 1967 7 SI WA ELSIE 1967-01-20 15:00:00 TS -23.4693 114.165 main 0 0 P_____P__PP_P_ SH151967 -23.3650 114.193 -1 -23.5492 114.172 -23.3650 114.193 TC -23.3893 114.166 2 -23.6075 114.143 TC 60 971 7 141
1967015S14124 1967 7 SI WA ELSIE 1967-01-20 18:00:00 TS -23.7189 114.399 main 0 0 O_____P__OP_O_ jtwc_sh SH151967 -23.7000 114.500 -1 -23.7096 114.334 -23.7000 114.500 TC -23.7155 114.475 2 -23.8000 114.300 TC 50 973 6 138
1967015S14124 1967 7 SI WA ELSIE 1967-01-20 21:00:00 TS -23.9470 114.639 main 0 0 P_____P__PP_P_ SH151967 -24.0150 114.808 -1 -23.8677 114.492 -24.0150 114.808 TC -24.0137 114.793 2 -23.9350 114.493 TC 45 975 6 136
1967015S14124 1967 7 SI WA ELSIE 1967-01-20 23:00:00 TS -24.0955 114.798 main 0 0 P_____P__PO_P_ SH151967 -24.2083 115.006 -1 -23.9790 114.596 -24.2083 115.006 TC -24.2000 115.000 1 -24.0355 114.631 TC 41 977 6 137
1967015S14124 1967 7 SI WA ELSIE 1967-01-21 00:00:00 TS -24.1721 114.874 main 0 0 O_____P__OP_O_ jtwc_sh SH151967 -24.3000 115.100 -1 -24.0380 114.648 -24.3000 115.100 TC -24.2945 115.095 1 -24.1000 114.700 TC 40 978 6 140
1967015S14124 1967 7 SI WA ELSIE 1967-01-21 01:00:00 TS -24.2540 114.945 978 bom main 0 0 P_____O__PP_P_ SH151967 -24.3890 115.187 -1 -24.1000 114.700 978 -24.3890 115.187 TC -24.3862 115.189 1 -24.1855 114.769 TC 39 978 6 144
1967015S14124 1967 7 SI WA ELSIE 1967-01-21 03:00:00 TS -24.4197 115.075 main 0 0 P_____P__PP_P_ SH151967 -24.5574 115.350 -1 -24.2277 114.761 -24.5574 115.350 TC -24.5622 115.375 1 -24.3850 114.907 TC 37 979 6 145
1967015S14124 1967 7 SI WA ELSIE 1967-01-21 06:00:00 TS -24.6686 115.263 main 0 0 O_____P__OP_O_ jtwc_sh SH151967 -24.8000 115.600 -1 -24.4266 114.837 -24.8000 115.600 TC -24.8109 115.649 1 -24.7000 115.100 TC 35 981 6 145
1967015S14124 1967 7 SI WA ELSIE 1967-01-21 09:00:00 TS -24.9156 115.462 main 0 0 P_____P__PP_P_ SH151967 -25.0575 115.900 -1 -24.6401 114.910 -25.0575 115.900 TC -25.0468 115.920 1 -24.9575 115.258 TC 35 982 6 144
1967015S14124 1967 7 SI WA ELSIE 1967-01-21 11:00:00 TS -25.0789 115.597 main 0 0 P_____P__PO_P_ SH151967 -25.2224 116.103 -1 -24.7939 114.965 -25.2224 116.103 TC -25.2000 116.100 2 -25.1193 115.353 TC 35 982 6 144
1967015S14124 1967 7 SI WA ELSIE 1967-01-21 12:00:00 TS -25.1600 115.663 main 0 0 O_____P__OP_O_ jtwc_sh SH151967 -25.3000 116.200 -1 -24.8750 114.997 -25.3000 116.200 TC -25.2770 116.186 2 -25.2000 115.400 TC 35 983 6 143
1967015S14124 1967 7 SI WA ELSIE 1967-01-21 15:00:00 TS -25.3959 115.858 main 0 0 P_____P__PP_P_ SH151967 -25.4999 116.450 -1 -25.1379 115.118 -25.4999 116.450 TC -25.5019 116.440 2 -25.4425 115.550 TC 35 984 6 143
1967015S14124 1967 7 SI WA ELSIE 1967-01-21 18:00:00 TS -25.6411 116.070 main 0 0 O_____P__OP_O_ jtwc_sh SH151967 -25.7000 116.700 -1 -25.4354 115.291 -25.7000 116.700 TC -25.7230 116.703 2 -25.7000 115.700 TC 35 986 7 142
1967015S14124 1967 7 SI WA ELSIE 1967-01-21 21:00:00 TS -25.9085 116.308 main 0 0 P_____P__PP_P_ SH151967 -25.9424 116.985 -1 -25.7739 115.533 -25.9424 116.985 TC -25.9465 116.989 2 -25.9546 115.784 TC 35 987 7 140
1967015S14124 1967 7 SI WA ELSIE 1967-01-21 23:00:00 TS -26.1031 116.501 main 0 0 P_____P__PO_P_ SH151967 -26.1140 117.192 -1 -26.0255 115.744 -26.1140 117.192 TC -26.1000 117.200 2 -26.1685 115.899 TC 35 987 8 137
1967015S14124 1967 7 SI WA ELSIE 1967-01-22 00:00:00 TS -26.2066 116.613 main 0 0 O_____P__OP_O_ jtwc_sh SH151967 -26.2000 117.300 -1 -26.1598 115.866 -26.2000 117.300 TC -26.1798 117.309 2 -26.3000 116.000 TC 35 988 9 135
1967015S14124 1967 7 SI WA ELSIE 1967-01-22 01:00:00 TS -26.3161 116.734 988 bom main 0 0 P_____O__PP_P_ SH151967 -26.2832 117.403 -1 -26.3000 116.000 988 -26.2832 117.403 TC -26.2607 117.423 2 -26.4655 116.148 TC 35 988 10 134
1967015S14124 1967 7 SI WA ELSIE 1967-01-22 03:00:00 TS -26.5492 117.008 main 0 0 P_____P__PP_P_ SH151967 -26.4498 117.620 -1 -26.6151 116.299 -26.4498 117.620 TC -26.4249 117.662 2 -26.8429 116.531 TC 35 989 11 131
1967015S14124 1967 7 SI WA ELSIE 1967-01-22 06:00:00 TS -26.9005 117.480 main 0 0 O_____P__OP_O_ jtwc_sh SH151967 -26.7000 118.000 -1 -27.0991 116.817 -26.7000 118.000 TC -26.6759 118.053 2 -27.4000 117.200 TC 35 991 11 128
1967015S14124 1967 7 SI WA ELSIE 1967-01-22 08:00:00 TS -27.1181 117.822 bom main 0 0 P_____O__PP_P_ SH151967 -26.8667 118.310 -1 -27.4000 117.200 -26.8667 118.310 TC -26.8453 118.337 2 -27.6918 117.595 TC 35 991 11 125
1967015S14124 1967 7 SI WA ELSIE 1967-01-22 09:00:00 TS -27.2214 118.002 main 0 0 P_____P__PP_P_ SH151967 -26.9500 118.478 -1 -27.5369 117.400 -26.9500 118.478 TC -26.9302 118.487 2 -27.8171 117.793 TC 35 992 12 121
1967015S14124 1967 7 SI WA ELSIE 1967-01-22 11:00:00 TS -27.4154 118.375 main 0 0 P_____P__PO_P_ SH151967 -27.1167 118.826 -1 -27.7822 117.816 -27.1167 118.826 TC -27.1000 118.800 2 -28.0222 118.194 TC 35 992 11 124
1967015S14124 1967 7 SI WA ELSIE 1967-01-22 12:00:00 TS -27.5339 118.527 main 0 0 O_____P__OP_O_ jtwc_sh SH151967 -27.2000 119.000 -1 -27.8917 118.031 -27.2000 119.000 TC -27.1847 118.964 2 -28.1000 118.400 TC 35 993 11 122
1967015S14124 1967 7 SI WA ELSIE 1967-01-22 15:00:00 TS -27.8103 119.082 main 0 0 P_____P__PP_P_ SH151967 -27.4502 119.507 -1 -28.1750 118.701 -27.4502 119.507 TC -27.4374 119.485 2 -28.2147 119.036 TC 35 994 11 119
1967015S14124 1967 7 SI WA ELSIE 1967-01-22 18:00:00 TS -28.0952 119.653 main 0 0 O_____P__OP_O_ jtwc_sh SH151967 -27.7000 120.000 -1 -28.4019 119.400 -27.7000 120.000 TC -27.6880 120.037 2 -28.3000 119.700 TC 35 995 12 120
1967015S14124 1967 7 SI WA ELSIE 1967-01-22 21:00:00 TS -28.4113 120.275 main 0 0 ______P___P_P_ SH151967 -1 -28.5881 120.121 TC -27.9360 120.611 2 -28.5083 120.391 TC 35 996 13 118
1967015S14124 1967 7 SI WA ELSIE 1967-01-22 23:00:00 TS -28.5984 120.730 main 0 0 ______P___O_P_ SH151967 -1 -28.6973 120.609 TC -28.1000 121.000 1 -28.6989 120.863 TC 35 996 13 121
1967015S14124 1967 7 SI WA ELSIE 1967-01-23 00:00:00 TS -28.7496 120.927 main 0 0 ______P_____O_ -1 -28.7492 120.854 1 -28.8000 121.100 TC 35 997 11 122
1967015S14124 1967 7 SI WA ELSIE 1967-01-23 01:00:00 NR -28.8000 121.100 997 bom main 0 ______O_______ -1 -28.8000 121.100 997 1 TC 10 108

IBTrACS Databaseについて

本データベースは、米国NOAAが公開する1842年以降の世界の熱帯低気圧のベストトラックデータアーカイブInternational Best Track Archive for Climate Stewardship (IBTrACS)を、ウェブで閲覧しやすい形式に変換したものです。

最終更新日:2021-10-21